sensor_id;sensor_type;location;lat;lon;timestamp;pressure;altitude;pressure_sealevel;temperature;humidity
78673;BME280;67988;60.086;30.354;2023-06-05T00:01:11;101286.41;;;9.08;78.54
78673;BME280;67988;60.086;30.354;2023-06-05T00:03:39;101286.47;;;9.07;78.63
78673;BME280;67988;60.086;30.354;2023-06-05T00:06:09;101282.41;;;9.01;79.13
78673;BME280;67988;60.086;30.354;2023-06-05T00:08:36;101285.84;;;9.03;79.29
78673;BME280;67988;60.086;30.354;2023-06-05T00:11:04;101283.75;;;9.08;78.90
78673;BME280;67988;60.086;30.354;2023-06-05T00:13:31;101293.59;;;9.06;78.97
78673;BME280;67988;60.086;30.354;2023-06-05T00:15:58;101284.59;;;9.09;78.85
78673;BME280;67988;60.086;30.354;2023-06-05T00:18:28;101294.38;;;9.08;78.91
78673;BME280;67988;60.086;30.354;2023-06-05T00:20:55;101288.03;;;9.11;78.61
78673;BME280;67988;60.086;30.354;2023-06-05T00:23:22;101295.22;;;9.09;78.70
78673;BME280;67988;60.086;30.354;2023-06-05T00:25:49;101292.47;;;9.10;78.66
78673;BME280;67988;60.086;30.354;2023-06-05T00:28:18;101294.94;;;9.13;78.56
78673;BME280;67988;60.086;30.354;2023-06-05T00:30:45;101307.34;;;9.13;78.41
78673;BME280;67988;60.086;30.354;2023-06-05T00:33:12;101308.19;;;9.13;78.62
78673;BME280;67988;60.086;30.354;2023-06-05T00:35:39;101313.72;;;9.10;78.74
78673;BME280;67988;60.086;30.354;2023-06-05T00:38:06;101314.56;;;9.11;78.58
78673;BME280;67988;60.086;30.354;2023-06-05T00:40:33;101305.34;;;9.02;78.82
78673;BME280;67988;60.086;30.354;2023-06-05T00:43:00;101307.94;;;9.04;78.65
78673;BME280;67988;60.086;30.354;2023-06-05T00:45:29;101307.16;;;9.02;78.80
78673;BME280;67988;60.086;30.354;2023-06-05T00:47:56;101312.47;;;9.02;78.93
78673;BME280;67988;60.086;30.354;2023-06-05T00:50:24;101312.56;;;9.00;79.06
78673;BME280;67988;60.086;30.354;2023-06-05T00:52:51;101311.31;;;9.06;79.12
78673;BME280;67988;60.086;30.354;2023-06-05T00:55:19;101299.66;;;9.08;78.84
78673;BME280;67988;60.086;30.354;2023-06-05T00:57:46;101303.53;;;9.17;78.82
78673;BME280;67988;60.086;30.354;2023-06-05T01:00:14;101306.09;;;9.18;78.80
78673;BME280;67988;60.086;30.354;2023-06-05T01:02:43;101308.84;;;9.31;78.25
78673;BME280;67988;60.086;30.354;2023-06-05T01:05:10;101306.84;;;9.35;78.18
78673;BME280;67988;60.086;30.354;2023-06-05T01:07:37;101311.31;;;9.34;77.96
78673;BME280;67988;60.086;30.354;2023-06-05T01:10:08;101318.34;;;9.35;78.13
78673;BME280;67988;60.086;30.354;2023-06-05T01:12:41;101316.31;;;9.39;78.14
78673;BME280;67988;60.086;30.354;2023-06-05T01:15:09;101322.00;;;9.47;77.83
78673;BME280;67988;60.086;30.354;2023-06-05T01:17:36;101317.09;;;9.41;78.15
78673;BME280;67988;60.086;30.354;2023-06-05T01:20:06;101324.59;;;9.48;77.80
78673;BME280;67988;60.086;30.354;2023-06-05T01:22:35;101318.13;;;9.52;77.56
78673;BME280;67988;60.086;30.354;2023-06-05T01:25:06;101320.69;;;9.54;77.58
78673;BME280;67988;60.086;30.354;2023-06-05T01:27:42;101318.59;;;9.59;77.21
78673;BME280;67988;60.086;30.354;2023-06-05T01:30:15;101319.31;;;9.61;77.05
78673;BME280;67988;60.086;30.354;2023-06-05T01:32:49;101324.75;;;9.59;77.13
78673;BME280;67988;60.086;30.354;2023-06-05T01:35:22;101319.31;;;9.61;77.12
78673;BME280;67988;60.086;30.354;2023-06-05T01:37:54;101327.75;;;9.68;76.99
78673;BME280;67988;60.086;30.354;2023-06-05T01:40:24;101317.75;;;9.71;76.73
78673;BME280;67988;60.086;30.354;2023-06-05T01:42:53;101329.38;;;9.70;76.94
78673;BME280;67988;60.086;30.354;2023-06-05T01:45:21;101327.75;;;9.68;77.07
78673;BME280;67988;60.086;30.354;2023-06-05T01:47:49;101325.66;;;9.73;76.85
78673;BME280;67988;60.086;30.354;2023-06-05T01:50:17;101327.16;;;9.77;76.77
78673;BME280;67988;60.086;30.354;2023-06-05T01:52:44;101317.19;;;9.80;76.29
78673;BME280;67988;60.086;30.354;2023-06-05T01:55:14;101320.16;;;9.76;76.26
78673;BME280;67988;60.086;30.354;2023-06-05T01:57:44;101333.06;;;9.82;76.27
78673;BME280;67988;60.086;30.354;2023-06-05T02:00:12;101339.41;;;9.79;76.24
78673;BME280;67988;60.086;30.354;2023-06-05T02:02:42;101331.53;;;9.78;76.07
78673;BME280;67988;60.086;30.354;2023-06-05T02:05:09;101327.91;;;9.79;75.96
78673;BME280;67988;60.086;30.354;2023-06-05T02:07:38;101327.06;;;9.78;76.04
78673;BME280;67988;60.086;30.354;2023-06-05T02:10:08;101332.47;;;9.77;75.83
78673;BME280;67988;60.086;30.354;2023-06-05T02:12:36;101326.91;;;9.67;76.04
78673;BME280;67988;60.086;30.354;2023-06-05T02:15:06;101335.63;;;9.69;76.07
78673;BME280;67988;60.086;30.354;2023-06-05T02:17:33;101332.03;;;9.70;76.12
78673;BME280;67988;60.086;30.354;2023-06-05T02:20:02;101334.78;;;9.69;75.92
78673;BME280;67988;60.086;30.354;2023-06-05T02:22:29;101327.44;;;9.72;75.46
78673;BME280;67988;60.086;30.354;2023-06-05T02:24:56;101326.97;;;9.80;74.88
78673;BME280;67988;60.086;30.354;2023-06-05T02:27:23;101338.38;;;9.82;74.50
78673;BME280;67988;60.086;30.354;2023-06-05T02:29:52;101338.84;;;9.74;74.71
78673;BME280;67988;60.086;30.354;2023-06-05T02:32:21;101345.09;;;9.73;74.57
78673;BME280;67988;60.086;30.354;2023-06-05T02:34:52;101342.66;;;9.70;74.38
78673;BME280;67988;60.086;30.354;2023-06-05T02:37:19;101346.19;;;9.71;74.18
78673;BME280;67988;60.086;30.354;2023-06-05T02:39:48;101348.72;;;9.72;74.00
78673;BME280;67988;60.086;30.354;2023-06-05T02:42:15;101342.66;;;9.70;73.89
78673;BME280;67988;60.086;30.354;2023-06-05T02:44:44;101348.16;;;9.67;74.04
78673;BME280;67988;60.086;30.354;2023-06-05T02:47:11;101349.78;;;9.70;73.65
78673;BME280;67988;60.086;30.354;2023-06-05T02:49:40;101350.63;;;9.70;73.58
78673;BME280;67988;60.086;30.354;2023-06-05T02:52:07;101347.22;;;9.68;73.59
78673;BME280;67988;60.086;30.354;2023-06-05T02:54:34;101350.81;;;9.67;73.46
78673;BME280;67988;60.086;30.354;2023-06-05T02:57:04;101360.59;;;9.66;73.15
78673;BME280;67988;60.086;30.354;2023-06-05T02:59:33;101348.84;;;9.71;72.86
78673;BME280;67988;60.086;30.354;2023-06-05T03:02:06;101350.13;;;9.78;72.16
78673;BME280;67988;60.086;30.354;2023-06-05T03:04:35;101351.94;;;9.77;71.90
78673;BME280;67988;60.086;30.354;2023-06-05T03:07:06;101355.13;;;9.82;71.67
78673;BME280;67988;60.086;30.354;2023-06-05T03:09:36;101367.47;;;9.83;71.35
78673;BME280;67988;60.086;30.354;2023-06-05T03:12:04;101365.59;;;9.85;71.26
78673;BME280;67988;60.086;30.354;2023-06-05T03:14:31;101369.09;;;9.86;70.41
78673;BME280;67988;60.086;30.354;2023-06-05T03:16:59;101360.72;;;9.92;70.23
78673;BME280;67988;60.086;30.354;2023-06-05T03:19:26;101369.66;;;9.91;70.23
78673;BME280;67988;60.086;30.354;2023-06-05T03:21:57;101365.06;;;9.93;70.13
78673;BME280;67988;60.086;30.354;2023-06-05T03:24:26;101370.13;;;9.97;70.45
78673;BME280;67988;60.086;30.354;2023-06-05T03:26:58;101365.44;;;10.01;70.51
78673;BME280;67988;60.086;30.354;2023-06-05T03:29:26;101353.56;;;10.06;69.76
78673;BME280;67988;60.086;30.354;2023-06-05T03:31:54;101357.72;;;10.11;69.93
78673;BME280;67988;60.086;30.354;2023-06-05T03:34:21;101355.59;;;10.16;69.97
78673;BME280;67988;60.086;30.354;2023-06-05T03:36:48;101365.22;;;10.18;69.61
78673;BME280;67988;60.086;30.354;2023-06-05T03:39:17;101363.22;;;10.22;68.52
78673;BME280;67988;60.086;30.354;2023-06-05T03:41:47;101368.03;;;10.29;68.38
78673;BME280;67988;60.086;30.354;2023-06-05T03:44:14;101360.59;;;10.34;68.46
78673;BME280;67988;60.086;30.354;2023-06-05T03:46:41;101362.72;;;10.42;67.38
78673;BME280;67988;60.086;30.354;2023-06-05T03:49:10;101360.91;;;10.42;66.47
78673;BME280;67988;60.086;30.354;2023-06-05T03:51:37;101364.03;;;10.49;66.19
78673;BME280;67988;60.086;30.354;2023-06-05T03:54:06;101355.72;;;10.54;65.93
78673;BME280;67988;60.086;30.354;2023-06-05T03:56:35;101360.47;;;10.63;66.15
78673;BME280;67988;60.086;30.354;2023-06-05T03:59:10;101362.38;;;10.73;65.73
78673;BME280;67988;60.086;30.354;2023-06-05T04:01:46;101368.44;;;10.75;65.11
78673;BME280;67988;60.086;30.354;2023-06-05T04:04:13;101351.84;;;10.72;64.32
78673;BME280;67988;60.086;30.354;2023-06-05T04:06:41;101373.25;;;10.83;63.55
78673;BME280;67988;60.086;30.354;2023-06-05T04:09:09;101372.75;;;10.90;63.35
78673;BME280;67988;60.086;30.354;2023-06-05T04:11:39;101375.28;;;10.92;62.85
78673;BME280;67988;60.086;30.354;2023-06-05T04:14:10;101371.88;;;11.03;62.03
78673;BME280;67988;60.086;30.354;2023-06-05T04:16:39;101373.06;;;11.11;62.28
78673;BME280;67988;60.086;30.354;2023-06-05T04:19:11;101362.06;;;11.16;62.48
78673;BME280;67988;60.086;30.354;2023-06-05T04:21:42;101365.59;;;11.16;62.62
78673;BME280;67988;60.086;30.354;2023-06-05T04:24:10;101377.31;;;11.39;62.99
78673;BME280;67988;60.086;30.354;2023-06-05T04:26:38;101368.31;;;11.53;62.44
78673;BME280;67988;60.086;30.354;2023-06-05T04:29:07;101373.63;;;11.65;61.21
78673;BME280;67988;60.086;30.354;2023-06-05T04:31:41;101369.03;;;11.80;60.24
78673;BME280;67988;60.086;30.354;2023-06-05T04:34:09;101317.31;;;11.70;59.59
78673;BME280;67988;60.086;30.354;2023-06-05T04:36:36;101369.94;;;11.92;57.70
78673;BME280;67988;60.086;30.354;2023-06-05T04:39:04;101371.81;;;12.02;57.50
78673;BME280;67988;60.086;30.354;2023-06-05T04:41:32;101368.31;;;12.02;57.71
78673;BME280;67988;60.086;30.354;2023-06-05T04:44:03;101366.38;;;12.04;57.55
78673;BME280;67988;60.086;30.354;2023-06-05T04:46:31;101360.72;;;12.08;56.99
78673;BME280;67988;60.086;30.354;2023-06-05T04:49:00;101346.31;;;12.22;57.63
78673;BME280;67988;60.086;30.354;2023-06-05T04:51:28;101350.25;;;12.29;56.53
78673;BME280;67988;60.086;30.354;2023-06-05T04:53:55;101343.84;;;12.32;56.00
78673;BME280;67988;60.086;30.354;2023-06-05T04:56:24;101349.66;;;12.26;55.46
78673;BME280;67988;60.086;30.354;2023-06-05T04:58:51;101354.22;;;12.24;55.51
78673;BME280;67988;60.086;30.354;2023-06-05T05:01:20;101356.88;;;12.47;54.40
78673;BME280;67988;60.086;30.354;2023-06-05T05:03:47;101356.19;;;12.56;55.28
78673;BME280;67988;60.086;30.354;2023-06-05T05:06:16;101358.78;;;12.69;55.02
78673;BME280;67988;60.086;30.354;2023-06-05T05:08:45;101361.47;;;12.80;55.11
78673;BME280;67988;60.086;30.354;2023-06-05T05:11:15;101359.75;;;12.79;54.73
78673;BME280;67988;60.086;30.354;2023-06-05T05:13:43;101375.69;;;12.81;54.43
78673;BME280;67988;60.086;30.354;2023-06-05T05:16:10;101360.75;;;12.89;53.59
78673;BME280;67988;60.086;30.354;2023-06-05T05:18:39;101359.69;;;12.92;53.51
78673;BME280;67988;60.086;30.354;2023-06-05T05:21:07;101355.91;;;12.94;53.31
78673;BME280;67988;60.086;30.354;2023-06-05T05:23:36;101363.50;;;13.12;53.21
78673;BME280;67988;60.086;30.354;2023-06-05T05:26:04;101362.28;;;13.16;52.90
78673;BME280;67988;60.086;30.354;2023-06-05T05:28:31;101356.72;;;13.30;53.44
78673;BME280;67988;60.086;30.354;2023-06-05T05:30:59;101351.72;;;13.36;52.83
78673;BME280;67988;60.086;30.354;2023-06-05T05:33:26;101349.66;;;13.40;53.20
78673;BME280;67988;60.086;30.354;2023-06-05T05:35:53;101338.59;;;13.33;53.41
78673;BME280;67988;60.086;30.354;2023-06-05T05:38:21;101335.06;;;13.22;54.13
78673;BME280;67988;60.086;30.354;2023-06-05T05:40:49;101336.84;;;13.10;54.79
78673;BME280;67988;60.086;30.354;2023-06-05T05:43:16;101322.63;;;12.98;55.80
78673;BME280;67988;60.086;30.354;2023-06-05T05:45:43;101331.38;;;12.89;56.96
78673;BME280;67988;60.086;30.354;2023-06-05T05:48:10;101326.41;;;12.85;57.36
78673;BME280;67988;60.086;30.354;2023-06-05T05:50:37;101333.09;;;12.90;57.40
78673;BME280;67988;60.086;30.354;2023-06-05T05:53:04;101342.31;;;12.97;57.58
78673;BME280;67988;60.086;30.354;2023-06-05T05:55:31;101343.50;;;12.93;57.99
78673;BME280;67988;60.086;30.354;2023-06-05T05:57:59;101356.25;;;12.90;57.97
78673;BME280;67988;60.086;30.354;2023-06-05T06:00:26;101351.19;;;12.98;58.99
78673;BME280;67988;60.086;30.354;2023-06-05T06:02:54;101358.09;;;12.89;59.30
78673;BME280;67988;60.086;30.354;2023-06-05T06:05:21;101351.78;;;13.02;59.55
78673;BME280;67988;60.086;30.354;2023-06-05T06:07:48;101338.84;;;13.19;59.98
78673;BME280;67988;60.086;30.354;2023-06-05T06:10:15;101366.06;;;13.24;59.37
78673;BME280;67988;60.086;30.354;2023-06-05T06:12:43;101358.53;;;13.18;58.62
78673;BME280;67988;60.086;30.354;2023-06-05T06:15:12;101365.69;;;13.29;58.16
78673;BME280;67988;60.086;30.354;2023-06-05T06:17:39;101362.53;;;13.46;57.64
78673;BME280;67988;60.086;30.354;2023-06-05T06:20:07;101357.31;;;13.56;57.43
78673;BME280;67988;60.086;30.354;2023-06-05T06:22:38;101354.50;;;13.68;55.89
78673;BME280;67988;60.086;30.354;2023-06-05T06:25:06;101338.19;;;13.71;55.61
78673;BME280;67988;60.086;30.354;2023-06-05T06:27:34;101354.72;;;13.76;55.77
78673;BME280;67988;60.086;30.354;2023-06-05T06:30:01;101353.63;;;13.79;55.95
78673;BME280;67988;60.086;30.354;2023-06-05T06:32:29;101358.34;;;13.87;55.79
78673;BME280;67988;60.086;30.354;2023-06-05T06:34:57;101370.28;;;13.71;55.46
78673;BME280;67988;60.086;30.354;2023-06-05T06:37:25;101351.44;;;13.84;54.57
78673;BME280;67988;60.086;30.354;2023-06-05T06:39:52;101364.31;;;13.90;54.57
78673;BME280;67988;60.086;30.354;2023-06-05T06:42:19;101367.84;;;13.91;53.94
78673;BME280;67988;60.086;30.354;2023-06-05T06:45:08;101383.22;;;14.09;52.87
78673;BME280;67988;60.086;30.354;2023-06-05T06:47:36;101374.88;;;13.92;54.21
78673;BME280;67988;60.086;30.354;2023-06-05T06:50:04;101360.53;;;13.93;54.61
78673;BME280;67988;60.086;30.354;2023-06-05T06:52:31;101364.59;;;14.08;54.81
78673;BME280;67988;60.086;30.354;2023-06-05T06:54:58;101340.66;;;14.06;53.70
78673;BME280;67988;60.086;30.354;2023-06-05T06:57:26;101377.91;;;13.98;53.43
78673;BME280;67988;60.086;30.354;2023-06-05T06:59:53;101370.53;;;13.91;53.06
78673;BME280;67988;60.086;30.354;2023-06-05T07:02:23;101345.13;;;13.74;53.15
78673;BME280;67988;60.086;30.354;2023-06-05T07:04:52;101383.06;;;13.79;54.52
78673;BME280;67988;60.086;30.354;2023-06-05T07:07:20;101370.78;;;13.76;53.48
78673;BME280;67988;60.086;30.354;2023-06-05T16:22:05;101304.19;;;19.17;42.53
78673;BME280;67988;60.086;30.354;2023-06-05T16:24:32;101308.53;;;18.23;44.46
78673;BME280;67988;60.086;30.354;2023-06-05T16:26:59;101306.97;;;17.57;46.19
78673;BME280;67988;60.086;30.354;2023-06-05T16:29:27;101275.06;;;17.72;46.21
78673;BME280;67988;60.086;30.354;2023-06-05T16:31:54;101280.72;;;17.42;46.87
78673;BME280;67988;60.086;30.354;2023-06-05T16:34:21;101321.13;;;16.86;48.48
78673;BME280;67988;60.086;30.354;2023-06-05T16:36:48;101302.66;;;16.25;50.40
78673;BME280;67988;60.086;30.354;2023-06-05T16:39:17;101299.81;;;16.75;49.66
78673;BME280;67988;60.086;30.354;2023-06-05T16:41:44;101288.97;;;17.58;47.37
78673;BME280;67988;60.086;30.354;2023-06-05T16:44:14;101294.94;;;17.34;48.01
78673;BME280;67988;60.086;30.354;2023-06-05T16:46:43;101286.97;;;16.68;49.56
78673;BME280;67988;60.086;30.354;2023-06-05T16:49:10;101285.31;;;17.32;48.38
78673;BME280;67988;60.086;30.354;2023-06-05T16:51:37;101274.28;;;17.80;46.98
78673;BME280;67988;60.086;30.354;2023-06-05T16:54:20;101284.13;;;17.44;48.03
78673;BME280;67988;60.086;30.354;2023-06-05T16:56:48;101289.28;;;17.55;48.17
78673;BME280;67988;60.086;30.354;2023-06-05T16:59:16;101288.84;;;16.95;49.72
78673;BME280;67988;60.086;30.354;2023-06-05T17:01:43;101300.53;;;17.13;49.34
78673;BME280;67988;60.086;30.354;2023-06-05T17:04:11;101297.56;;;17.44;48.27
78673;BME280;67988;60.086;30.354;2023-06-05T17:06:38;101271.00;;;17.31;48.49
78673;BME280;67988;60.086;30.354;2023-06-05T17:09:06;101282.53;;;17.24;49.07
78673;BME280;67988;60.086;30.354;2023-06-05T17:11:34;101277.00;;;16.88;50.02
78673;BME280;67988;60.086;30.354;2023-06-05T17:14:01;101280.72;;;16.49;50.84
78673;BME280;67988;60.086;30.354;2023-06-05T17:16:28;101277.91;;;15.73;53.39
78673;BME280;67988;60.086;30.354;2023-06-05T17:18:55;101280.69;;;15.53;53.95
78673;BME280;67988;60.086;30.354;2023-06-05T17:21:25;101274.88;;;15.17;55.21
78673;BME280;67988;60.086;30.354;2023-06-05T17:23:53;101279.81;;;15.12;55.66
78673;BME280;67988;60.086;30.354;2023-06-05T17:26:19;101251.06;;;15.24;55.49
78673;BME280;67988;60.086;30.354;2023-06-05T17:28:51;101247.13;;;14.88;55.71
78673;BME280;67988;60.086;30.354;2023-06-05T17:31:23;101268.69;;;14.86;56.34
78673;BME280;67988;60.086;30.354;2023-06-05T17:33:51;101283.38;;;14.61;57.31
78673;BME280;67988;60.086;30.354;2023-06-05T17:36:18;101281.16;;;14.67;57.00
78673;BME280;67988;60.086;30.354;2023-06-05T17:38:45;101286.03;;;14.41;58.01
78673;BME280;67988;60.086;30.354;2023-06-05T17:41:12;101280.44;;;14.12;59.13
78673;BME280;67988;60.086;30.354;2023-06-05T17:43:39;101282.66;;;14.07;59.29
78673;BME280;67988;60.086;30.354;2023-06-05T17:46:07;101278.28;;;14.06;59.41
78673;BME280;67988;60.086;30.354;2023-06-05T17:48:34;101270.25;;;14.06;59.35
78673;BME280;67988;60.086;30.354;2023-06-05T17:51:02;101280.56;;;14.10;59.20
78673;BME280;67988;60.086;30.354;2023-06-05T17:53:29;101290.41;;;14.10;59.25
78673;BME280;67988;60.086;30.354;2023-06-05T17:55:56;101288.09;;;13.85;60.21
78673;BME280;67988;60.086;30.354;2023-06-05T17:58:29;101280.69;;;13.77;60.35
78673;BME280;67988;60.086;30.354;2023-06-05T18:00:56;101283.47;;;13.75;60.43
78673;BME280;67988;60.086;30.354;2023-06-05T18:03:24;101282.06;;;13.60;60.99
78673;BME280;67988;60.086;30.354;2023-06-05T18:05:51;101278.50;;;13.71;60.42
78673;BME280;67988;60.086;30.354;2023-06-05T18:08:19;101285.69;;;13.59;60.84
78673;BME280;67988;60.086;30.354;2023-06-05T18:10:46;101295.22;;;13.41;61.77
78673;BME280;67988;60.086;30.354;2023-06-05T18:13:13;101301.28;;;13.32;62.03
78673;BME280;67988;60.086;30.354;2023-06-05T18:15:41;101281.38;;;13.36;61.97
78673;BME280;67988;60.086;30.354;2023-06-05T18:18:08;101292.88;;;13.59;61.30
78673;BME280;67988;60.086;30.354;2023-06-05T18:20:39;101277.66;;;13.70;60.77
78673;BME280;67988;60.086;30.354;2023-06-05T18:23:06;101288.13;;;13.62;61.05
78673;BME280;67988;60.086;30.354;2023-06-05T18:25:33;101281.25;;;13.80;60.25
78673;BME280;67988;60.086;30.354;2023-06-05T18:28:00;101277.00;;;13.89;60.16
78673;BME280;67988;60.086;30.354;2023-06-05T18:30:27;101288.41;;;13.91;59.74
78673;BME280;67988;60.086;30.354;2023-06-05T18:32:54;101285.41;;;13.85;59.95
78673;BME280;67988;60.086;30.354;2023-06-05T18:35:21;101297.97;;;13.73;60.39
78673;BME280;67988;60.086;30.354;2023-06-05T18:37:50;101296.78;;;13.55;60.92
78673;BME280;67988;60.086;30.354;2023-06-05T18:40:17;101302.25;;;13.53;60.80
78673;BME280;67988;60.086;30.354;2023-06-05T18:42:44;101271.88;;;13.32;61.71
78673;BME280;67988;60.086;30.354;2023-06-05T18:45:12;101296.69;;;13.23;62.19
78673;BME280;67988;60.086;30.354;2023-06-05T18:47:39;101292.31;;;13.22;62.14
78673;BME280;67988;60.086;30.354;2023-06-05T18:50:06;101299.84;;;13.17;62.21
78673;BME280;67988;60.086;30.354;2023-06-05T18:52:33;101295.69;;;13.02;62.85
78673;BME280;67988;60.086;30.354;2023-06-05T18:55:02;101298.25;;;13.03;62.94
78673;BME280;67988;60.086;30.354;2023-06-05T18:57:29;101297.13;;;12.94;63.29
78673;BME280;67988;60.086;30.354;2023-06-05T18:59:56;101296.16;;;12.84;63.75
78673;BME280;67988;60.086;30.354;2023-06-05T19:02:24;101283.41;;;12.77;64.26
78673;BME280;67988;60.086;30.354;2023-06-05T19:04:50;101291.28;;;12.78;64.02
78673;BME280;67988;60.086;30.354;2023-06-05T19:07:17;101289.94;;;12.73;64.21
78673;BME280;67988;60.086;30.354;2023-06-05T19:09:44;101288.47;;;12.57;64.98
78673;BME280;67988;60.086;30.354;2023-06-05T19:12:13;101293.72;;;12.59;65.03
78673;BME280;67988;60.086;30.354;2023-06-05T19:14:40;101287.63;;;12.57;65.24
78673;BME280;67988;60.086;30.354;2023-06-05T19:17:07;101294.06;;;12.54;65.43
78673;BME280;67988;60.086;30.354;2023-06-05T19:19:34;101295.38;;;12.49;65.74
78673;BME280;67988;60.086;30.354;2023-06-05T19:22:02;101299.00;;;12.48;65.78
78673;BME280;67988;60.086;30.354;2023-06-05T19:24:29;101297.31;;;12.47;66.06
78673;BME280;67988;60.086;30.354;2023-06-05T19:26:56;101302.75;;;12.45;66.32
78673;BME280;67988;60.086;30.354;2023-06-05T19:29:24;101304.19;;;12.38;66.69
78673;BME280;67988;60.086;30.354;2023-06-05T19:31:51;101298.03;;;12.38;67.02
78673;BME280;67988;60.086;30.354;2023-06-05T19:34:18;101278.94;;;12.31;67.31
78673;BME280;67988;60.086;30.354;2023-06-05T19:36:45;101286.72;;;12.34;67.40
78673;BME280;67988;60.086;30.354;2023-06-05T19:39:12;101299.34;;;12.32;67.29
78673;BME280;67988;60.086;30.354;2023-06-05T19:41:39;101295.31;;;12.27;67.38
78673;BME280;67988;60.086;30.354;2023-06-05T19:44:06;101301.13;;;12.21;67.90
78673;BME280;67988;60.086;30.354;2023-06-05T19:46:39;101299.41;;;12.20;68.19
78673;BME280;67988;60.086;30.354;2023-06-05T19:49:06;101299.41;;;12.20;68.23
78673;BME280;67988;60.086;30.354;2023-06-05T19:51:35;101296.13;;;12.16;68.55
78673;BME280;67988;60.086;30.354;2023-06-05T19:54:03;101266.03;;;11.90;68.43
78673;BME280;67988;60.086;30.354;2023-06-05T19:56:30;101297.75;;;12.06;68.78
78673;BME280;67988;60.086;30.354;2023-06-05T19:58:57;101301.53;;;12.03;69.12
78673;BME280;67988;60.086;30.354;2023-06-05T20:01:24;101296.19;;;12.03;69.09
78673;BME280;67988;60.086;30.354;2023-06-05T20:04:19;101299.06;;;12.00;69.81
78673;BME280;67988;60.086;30.354;2023-06-05T20:06:45;101298.97;;;12.02;69.30
78673;BME280;67988;60.086;30.354;2023-06-05T20:09:13;101307.72;;;12.04;69.81
78673;BME280;67988;60.086;30.354;2023-06-05T20:11:40;101302.06;;;11.96;69.76
78673;BME280;67988;60.086;30.354;2023-06-05T20:14:07;101316.38;;;11.95;70.06
78673;BME280;67988;60.086;30.354;2023-06-05T20:16:34;101290.28;;;11.87;69.82
78673;BME280;67988;60.086;30.354;2023-06-05T20:19:01;101312.88;;;11.94;70.12
78673;BME280;67988;60.086;30.354;2023-06-05T20:21:30;101303.28;;;11.92;70.31
78673;BME280;67988;60.086;30.354;2023-06-05T20:23:57;101314.91;;;11.91;70.36
78673;BME280;67988;60.086;30.354;2023-06-05T20:26:24;101314.06;;;11.90;70.50
78673;BME280;67988;60.086;30.354;2023-06-05T20:28:52;101311.13;;;11.82;71.07
78673;BME280;67988;60.086;30.354;2023-06-05T20:31:19;101311.88;;;11.71;71.16
78673;BME280;67988;60.086;30.354;2023-06-05T20:33:46;101314.84;;;11.80;71.16
78673;BME280;67988;60.086;30.354;2023-06-05T20:36:20;101324.03;;;11.76;71.48
78673;BME280;67988;60.086;30.354;2023-06-05T20:38:49;101322.97;;;11.78;71.24
78673;BME280;67988;60.086;30.354;2023-06-05T20:41:17;101328.50;;;11.75;71.33
78673;BME280;67988;60.086;30.354;2023-06-05T20:43:45;101333.94;;;11.73;71.78
78673;BME280;67988;60.086;30.354;2023-06-05T20:46:15;101328.22;;;11.67;71.95
78673;BME280;67988;60.086;30.354;2023-06-05T20:48:46;101302.13;;;11.47;71.76
78673;BME280;67988;60.086;30.354;2023-06-05T20:51:16;101330.97;;;11.65;71.95
78673;BME280;67988;60.086;30.354;2023-06-05T20:53:46;101333.84;;;11.62;71.95
78673;BME280;67988;60.086;30.354;2023-06-05T20:56:23;101308.97;;;11.51;72.00
78673;BME280;67988;60.086;30.354;2023-06-05T20:58:51;101340.38;;;11.58;72.40
78673;BME280;67988;60.086;30.354;2023-06-05T21:01:19;101345.94;;;11.55;72.50
78673;BME280;67988;60.086;30.354;2023-06-05T21:03:47;101348.94;;;11.51;72.79
78673;BME280;67988;60.086;30.354;2023-06-05T21:06:14;101341.75;;;11.51;72.89
78673;BME280;67988;60.086;30.354;2023-06-05T21:08:41;101340.94;;;11.51;73.04
78673;BME280;67988;60.086;30.354;2023-06-05T21:11:10;101352.41;;;11.51;73.27
78673;BME280;67988;60.086;30.354;2023-06-05T21:13:39;101349.38;;;11.45;73.74
78673;BME280;67988;60.086;30.354;2023-06-05T21:16:06;101354.56;;;11.46;74.04
78673;BME280;67988;60.086;30.354;2023-06-05T21:18:33;101359.50;;;11.40;74.35
78673;BME280;67988;60.086;30.354;2023-06-05T21:21:00;101360.31;;;11.40;73.99
78673;BME280;67988;60.086;30.354;2023-06-05T21:23:27;101349.16;;;11.35;74.18
78673;BME280;67988;60.086;30.354;2023-06-05T21:25:55;101350.34;;;11.31;74.73
78673;BME280;67988;60.086;30.354;2023-06-05T21:28:23;101345.44;;;11.38;74.76
78673;BME280;67988;60.086;30.354;2023-06-05T21:30:52;101357.78;;;11.39;74.90
78673;BME280;67988;60.086;30.354;2023-06-05T21:33:24;101354.03;;;11.41;74.96
78673;BME280;67988;60.086;30.354;2023-06-05T21:35:51;101349.56;;;11.42;75.01
78673;BME280;67988;60.086;30.354;2023-06-05T21:38:18;101344.66;;;11.36;75.10
78673;BME280;67988;60.086;30.354;2023-06-05T21:40:46;101368.13;;;11.43;75.33
78673;BME280;67988;60.086;30.354;2023-06-05T21:43:13;101350.44;;;11.42;75.17
78673;BME280;67988;60.086;30.354;2023-06-05T21:45:41;101354.56;;;11.46;75.58
78673;BME280;67988;60.086;30.354;2023-06-05T21:48:09;101353.41;;;11.50;75.07
78673;BME280;67988;60.086;30.354;2023-06-05T21:50:36;101363.09;;;11.51;75.36
78673;BME280;67988;60.086;30.354;2023-06-05T21:53:04;101354.13;;;11.52;75.18
78673;BME280;67988;60.086;30.354;2023-06-05T21:55:31;101348.69;;;11.54;75.13
78673;BME280;67988;60.086;30.354;2023-06-05T21:57:58;101350.59;;;11.52;74.99
78673;BME280;67988;60.086;30.354;2023-06-05T22:00:26;101352.88;;;11.45;74.91